Rubikon9 — OMFJ — position and weather

sailwx.info

Track history (hours):
 
Tides and Currents Weather Stations Pressure Air Temp Water Temp Dewpoint Dewpoint Depression Visibility Wind Speed Wind Dir Waves Ship Positions

Rubikon9

Last reported at 2017-Nov-20 00:30 UTC. Time now 2017-Nov-20 05:55 UTC.
Position N 44°51' E 020°38'.

Length 109 m; draft 0.2 m.

Type: Tanker. MMSI: 267210081.

Date/timePositionNaut miles runAvg speedWind from/ knotsBaromVisibWave heightAir tempDewpointWater temp
2017-Nov-20 00:30N 44°51' E 020°38'17785.1
2017-Nov-20 00:29N 44°41' E 020°57'0 0.0
2017-Nov-20 00:01N 44°41' E 020°57'1730226.6
2017-Nov-20 00:00N 44°51' E 020°38'1733.6
2017-Nov-19 23:31N 44°41' E 020°57'1720151.1
2017-Nov-19 23:30N 44°51' E 020°38'1733.6
2017-Nov-19 23:01N 44°41' E 020°57'172747.9
2017-Nov-19 23:00N 44°51' E 020°38'0 0.0
2017-Nov-19 22:30N 44°51' E 020°38'17294.9
2017-Nov-19 22:27N 44°41' E 020°57'1737.9
2017-Nov-19 22:00N 44°51' E 020°38'1770.3
2017-Nov-19 21:46N 44°41' E 020°57'1761.7
2017-Nov-19 21:30N 44°51' E 020°38'17137.4
2017-Nov-19 21:22N 44°41' E 020°57'1744.1
2017-Nov-19 21:00N 44°51' E 020°38'17251.9
2017-Nov-19 20:56N 44°41' E 020°57'1740.0
2017-Nov-19 20:30N 44°51' E 020°38'171511.0
2017-Nov-19 20:30N 44°41' E 020°57'1734.2
2017-Nov-19 20:00N 44°51' E 020°38'0 0.0
2017-Nov-19 19:30N 44°51' E 020°38'0 0.0
2017-Nov-19 19:00N 44°51' E 020°38'16176.9
2017-Nov-19 18:55N 44°40' E 020°53'1638.2
2017-Nov-19 18:30N 44°51' E 020°38'0 0.0
2017-Nov-19 18:00N 44°51' E 020°38'1043.4
2017-Nov-19 17:47N 44°42' E 020°43'1037.9
2017-Nov-19 17:30N 44°51' E 020°38'859.8
2017-Nov-19 17:23N 44°44' E 020°41'820.1
2017-Nov-19 17:00N 44°51' E 020°38'5213.2
2017-Nov-19 16:59N 44°46' E 020°38'3 6.6
2017-Nov-19 16:31N 44°49' E 020°38'2637.2
2017-Nov-19 16:30N 44°51' E 020°38'1 1.6
2017-Nov-19 16:01N 44°51' E 020°37'11446.7
2017-Nov-19 16:00N 44°51' E 020°38'4 7.9
2017-Nov-19 15:31N 44°50' E 020°32'43553.8
2017-Nov-19 15:30N 44°51' E 020°38'714.4
2017-Nov-19 15:01N 44°50' E 020°28'76463.7
2017-Nov-19 15:00N 44°51' E 020°38'1020.0
2017-Nov-19 14:31N 44°52' E 020°24'101493.2
2017-Nov-19 14:30N 44°51' E 020°38'1225.2
2017-Nov-19 14:01N 44°54' E 020°21'1214912.3
2017-Nov-19 14:00N 44°51' E 020°38'1530.8
2017-Nov-19 13:31N 44°57' E 020°18'1527669.6
2017-Nov-19 13:30N 44°51' E 020°38'1631.6
2017-Nov-19 13:01N 44°60' E 020°19'162466.3
2017-Nov-19 13:00N 44°51' E 020°38'1632.4
2017-Nov-19 12:31N 45°02' E 020°22'1657659.9
2017-Nov-19 12:30N 44°51' E 020°38'0 0.0
2017-Nov-19 12:00N 44°51' E 020°38'20465.4
2017-Nov-19 11:58N 45°06' E 020°18'2043.0
2017-Nov-19 11:30N 44°51' E 020°38'231035.8
2017-Nov-19 11:29N 45°09' E 020°16'3 7.2
2017-Nov-19 11:00N 45°11' E 020°12'2795922.0
2017-Nov-19 11:00N 44°51' E 020°38'0 0.0
2017-Nov-19 10:30N 44°51' E 020°38'291703.6
2017-Nov-19 10:29N 45°10' E 020°07'2959.5
2017-Nov-19 10:00N 44°51' E 020°38'32544.3
2017-Nov-19 09:57N 45°10' E 020°02'3272.6
2017-Nov-19 09:30N 44°51' E 020°38'361138.4
2017-Nov-19 09:29N 45°12' E 019°57'3676.3
2017-Nov-19 09:00N 44°51' E 020°38'39174.9
2017-Nov-19 08:47N 45°15' E 019°54'39142.5
2017-Nov-19 08:30N 44°51' E 020°38'4149050.6
2017-Nov-19 08:30N 45°16' E 019°52'4181.9
2017-Nov-19 08:00N 44°51' E 020°38'414923.8
2017-Nov-19 08:00N 45°13' E 019°49'4183.4
2017-Nov-19 07:30N 44°51' E 020°38'449941.8
2017-Nov-19 07:30N 45°14' E 019°44'4489.2
2017-Nov-19 07:00N 44°51' E 020°38'475829.4
2017-Nov-19 07:00N 45°13' E 019°39'4795.5
2017-Nov-19 06:30N 44°51' E 020°38'501322.1
2017-Nov-19 06:28N 45°13' E 019°34'50108.0
2017-Nov-19 06:00N 44°51' E 020°38'53340.4
2017-Nov-19 05:51N 45°15' E 019°31'2 6.8
2017-Nov-19 05:30N 45°14' E 019°27'55197511.1
2017-Nov-19 05:30N 44°51' E 020°38'56113.0
2017-Nov-19 05:01N 45°14' E 019°25'5667634.2
2017-Nov-19 05:00N 44°51' E 020°38'56113.0
2017-Nov-19 04:31N 45°14' E 019°25'5614493.4
2017-Nov-19 04:30N 44°51' E 020°38'56113.5
2017-Nov-19 04:01N 45°14' E 019°25'56101453.9
2017-Nov-19 04:00N 44°51' E 020°38'56112.8
2017-Nov-19 03:30N 45°14' E 019°25'56101453.9
2017-Nov-19 03:30N 44°51' E 020°38'56112.9
2017-Nov-19 03:01N 45°14' E 019°25'5616909.0
2017-Nov-19 03:00N 44°51' E 020°38'56113.5
2017-Nov-19 02:31N 45°14' E 019°25'5667635.9
2017-Nov-19 02:30N 44°51' E 020°38'0 0.0
2017-Nov-19 02:00N 44°51' E 020°38'56112.8
2017-Nov-19 01:30N 45°14' E 019°25'56202907.8
2017-Nov-19 01:30N 44°51' E 020°38'56112.9
2017-Nov-19 01:01N 45°14' E 019°25'5650727.0
2017-Nov-19 01:00N 44°51' E 020°38'56112.9
2017-Nov-19 00:31N 45°14' E 019°25'56101460.9
2017-Nov-19 00:30N 44°51' E 020°38'56112.9
2017-Nov-19 00:01N 45°14' E 019°25'56101460.9
2017-Nov-19 00:00N 44°51' E 020°38'56112.9
2017-Nov-18 23:31N 45°14' E 019°25'5615609.4
2017-Nov-18 23:30N 44°51' E 020°38'56113.3
2017-Nov-18 23:00N 45°14' E 019°25'56202940.9
2017-Nov-18 23:00N 44°51' E 020°38'57113.3
2017-Nov-18 22:31N 45°14' E 019°24'57101818.7
2017-Nov-18 22:30N 44°51' E 020°38'0 0.0
2017-Nov-18 22:00N 44°51' E 020°38'592016.3
2017-Nov-18 21:58N 45°14' E 019°20'59126.2
2017-Nov-18 21:30N 44°51' E 020°38'634534.2
2017-Nov-18 21:29N 45°15' E 019°15'4 7.7
2017-Nov-18 21:01N 45°16' E 019°10'6748003.1
2017-Nov-18 21:00N 44°51' E 020°38'70140.8
2017-Nov-18 20:31N 45°18' E 019°06'7023004.9
2017-Nov-18 20:30N 44°51' E 020°38'73146.9
2017-Nov-18 20:00N 45°21' E 019°03'73131439.0
2017-Nov-18 20:00N 44°51' E 020°38'77153.6
2017-Nov-18 19:31N 45°22' E 018°59'7791980.6
2017-Nov-18 19:30N 44°51' E 020°38'76151.3
2017-Nov-18 19:01N 45°24' E 019°02'7622669.2
2017-Nov-18 19:00N 44°51' E 020°38'78157.5
2017-Nov-18 18:30N 45°27' E 018°59'78281807.8
2017-Nov-18 18:30N 44°51' E 020°38'78156.3
2017-Nov-18 18:01N 45°29' E 019°01'7823412.1
2017-Nov-18 18:00N 44°51' E 020°38'76152.0
2017-Nov-18 17:31N 45°30' E 019°06'7690604.4
2017-Nov-18 17:30N 44°51' E 020°38'79157.6
2017-Nov-18 17:01N 45°32' E 019°02'7956615.5
2017-Nov-18 17:00N 44°51' E 020°38'81161.5
2017-Nov-18 16:30N 45°32' E 018°59'3 6.8
2017-Nov-18 16:01N 45°33' E 018°55'8298903.3
2017-Nov-18 16:00N 44°51' E 020°35'84168.0
2017-Nov-18 15:31N 45°36' E 018°55'8399319.0
2017-Nov-18 15:30N 44°50' E 020°32'83166.4
2017-Nov-18 15:00N 45°39' E 018°57'83299072.1
2017-Nov-18 15:00N 44°50' E 020°32'85170.0
2017-Nov-18 14:30N 45°41' E 018°56'8349949.4
2017-Nov-18 14:30N 44°50' E 020°29'86173.6
2017-Nov-18 14:01N 45°45' E 018°54'8638767.6
2017-Nov-18 14:00N 44°50' E 020°28'89179.4
2017-Nov-18 13:30N 45°48' E 018°51'8953653.7
2017-Nov-18 13:30N 44°50' E 020°28'92183.8
2017-Nov-18 13:01N 45°51' E 018°51'9241187.2
2017-Nov-18 13:00N 44°50' E 020°28'91183.6
2017-Nov-18 12:31N 45°51' E 018°52'9241239.2
2017-Nov-18 12:30N 44°50' E 020°29'0 0.3
2017-Nov-18 12:00N 44°50' E 020°29'9266065.7
2017-Nov-18 12:00N 45°51' E 018°52'0 0.0
2017-Nov-18 11:30N 45°51' E 018°52'93168102.6
2017-Nov-18 11:30N 44°50' E 020°32'94187.5
2017-Nov-18 11:01N 45°51' E 018°51'9442339.2
2017-Nov-18 11:00N 44°51' E 020°34'2 4.5
2017-Nov-18 10:30N 44°51' E 020°37'9814153.0
2017-Nov-18 10:30N 45°54' E 018°50'99200.9
2017-Nov-18 10:00N 44°50' E 020°38'0 0.0
2017-Nov-18 09:30N 44°50' E 020°38'0 0.0
2017-Nov-18 09:00N 44°50' E 020°38'0 0.0
2017-Nov-18 08:30N 44°50' E 020°38'0 0.0
2017-Nov-18 08:00N 44°50' E 020°38'0 0.0
2017-Nov-18 07:31N 44°50' E 020°38'0 0.0
2017-Nov-18 07:00N 44°50' E 020°38'0 0.0
2017-Nov-18 06:30N 44°50' E 020°38'0 0.0
2017-Nov-18 06:00N 44°50' E 020°38'0 0.0
2017-Nov-18 05:30N 44°50' E 020°38'0 0.0
2017-Nov-18 05:00N 44°50' E 020°38'0 0.0
2017-Nov-18 04:30N 44°50' E 020°38'0 0.0
2017-Nov-18 04:00N 44°50' E 020°38'0 0.0
2017-Nov-18 03:24N 44°50' E 020°38'0 0.0
2017-Nov-18 03:00N 44°50' E 020°38'0 0.0
2017-Nov-18 02:30N 44°50' E 020°38'0 0.0
2017-Nov-18 02:01N 44°50' E 020°38'0 0.0
2017-Nov-18 01:30N 44°50' E 020°38'0 0.0
2017-Nov-18 01:00N 44°50' E 020°38'0 0.0
2017-Nov-18 00:30N 44°50' E 020°38'0 0.0
2017-Nov-18 00:00N 44°50' E 020°38'0 0.0
2017-Nov-17 23:31N 44°50' E 020°38'0 0.0
2017-Nov-17 23:00N 44°50' E 020°38'0 0.0
2017-Nov-17 22:30N 44°50' E 020°38'1 1.8
2017-Nov-17 22:01N 44°50' E 020°39'0 0.2
2017-Nov-17 21:30N 44°50' E 020°39'0 0.0
2017-Nov-17 21:00N 44°50' E 020°39'0 0.0
2017-Nov-17 20:30N 44°50' E 020°39'0 0.0
2017-Nov-17 20:00N 44°50' E 020°39'0 0.0
2017-Nov-17 19:30N 44°50' E 020°39'0 0.0
2017-Nov-17 19:00N 44°50' E 020°39'0 0.0
2017-Nov-17 18:30N 44°50' E 020°39'0 0.0
2017-Nov-17 18:00N 44°50' E 020°39'0 0.0
2017-Nov-17 17:30N 44°50' E 020°39'0 0.0
2017-Nov-17 17:00N 44°50' E 020°39'0 0.0
2017-Nov-17 16:30N 44°50' E 020°39'0 0.0
2017-Nov-17 16:00N 44°50' E 020°39'0 0.0
2017-Nov-17 15:30N 44°50' E 020°39'0 0.0
2017-Nov-17 15:00N 44°50' E 020°39'0 0.0
2017-Nov-17 14:30N 44°50' E 020°39'0 0.0
2017-Nov-17 14:00N 44°50' E 020°39'0 0.0
2017-Nov-17 13:30N 44°50' E 020°39'0 0.0
2017-Nov-17 13:00N 44°50' E 020°39'0 0.0
2017-Nov-17 12:30N 44°50' E 020°39'0 0.0
2017-Nov-17 12:00N 44°50' E 020°39'0 0.0
2017-Nov-17 11:30N 44°50' E 020°39'0 0.0
2017-Nov-17 11:00N 44°50' E 020°39'0 0.0
2017-Nov-17 10:31N 44°50' E 020°39'0 0.0
2017-Nov-17 10:01N 44°50' E 020°39'0 0.0
2017-Nov-17 09:31N 44°50' E 020°39'0 0.0
2017-Nov-17 09:00N 44°50' E 020°39'0 0.0
2017-Nov-17 08:30N 44°50' E 020°39'0 0.0
2017-Nov-17 08:00N 44°50' E 020°39'163690.7
2017-Nov-17 07:46N 47°16' E 018°55'163617.2
2017-Nov-17 07:30N 44°50' E 020°39'164944.2
2017-Nov-17 07:20N 47°17' E 018°55'164503.5
2017-Nov-17 07:00N 44°50' E 020°39'0 0.0
2017-Nov-17 06:30N 44°50' E 020°39'1641089.0
2017-Nov-17 06:21N 47°17' E 018°55'164470.4
2017-Nov-17 06:00N 44°50' E 020°39'16429565.6
2017-Nov-17 06:00N 47°17' E 018°55'164332.2
2017-Nov-17 05:30N 44°50' E 020°39'16449275.5
2017-Nov-17 05:30N 47°17' E 018°55'164330.7
2017-Nov-17 05:00N 44°50' E 020°39'16473913.2
2017-Nov-17 05:00N 47°17' E 018°55'164331.8
2017-Nov-17 04:31N 44°50' E 020°39'1649536.9
2017-Nov-17 04:30N 47°17' E 018°55'164338.3
2017-Nov-17 04:00N 44°50' E 020°39'1642570.8
2017-Nov-17 03:57N 47°17' E 018°55'164378.8
2017-Nov-17 03:31N 44°50' E 020°39'1645854.3
2017-Nov-17 03:29N 47°17' E 018°55'164346.0
2017-Nov-17 03:00N 44°50' E 020°39'16412318.5
2017-Nov-17 03:00N 47°17' E 018°55'0 0.0
2017-Nov-17 02:31N 47°17' E 018°55'0 0.0
2017-Nov-17 02:01N 47°17' E 018°55'0 0.0
2017-Nov-17 01:27N 47°17' E 018°55'164949.1
2017-Nov-17 01:17N 44°50' E 020°39'0 0.0
2017-Nov-17 01:01N 44°50' E 020°39'1645053.7
2017-Nov-17 00:59N 47°17' E 018°55'164349.3
2017-Nov-17 00:30N 44°50' E 020°39'16410750.7
2017-Nov-17 00:29N 47°17' E 018°55'164338.9
2017-Nov-17 00:00N 44°50' E 020°39'164197101.8
2017-Nov-17 00:00N 47°17' E 018°55'164329.0
2017-Nov-16 23:30N 44°50' E 020°39'16411593.8
2017-Nov-16 23:30N 47°17' E 018°55'164338.1
2017-Nov-16 23:00N 44°50' E 020°39'16414078.2
2017-Nov-16 23:00N 47°17' E 018°55'164338.1
2017-Nov-16 22:31N 44°50' E 020°39'16412318.5
2017-Nov-16 22:30N 47°17' E 018°55'164335.7
2017-Nov-16 22:00N 44°50' E 020°39'1642954.5
2017-Nov-16 21:57N 47°17' E 018°55'164370.3
2017-Nov-16 21:30N 44°50' E 020°39'1648209.4
2017-Nov-16 21:29N 47°17' E 018°55'166345.6
2017-Nov-16 21:01N 44°48' E 020°38'166925.2
2017-Nov-16 20:50N 47°17' E 018°55'167521.6
2017-Nov-16 20:31N 44°46' E 020°38'1671575.8
2017-Nov-16 20:24N 47°17' E 018°55'170430.8
2017-Nov-16 20:00N 44°44' E 020°40'1707376.1
2017-Nov-16 19:59N 47°17' E 018°55'173363.5
2017-Nov-16 19:30N 44°41' E 020°43'3 6.7
2017-Nov-16 19:00N 44°40' E 020°47'3 6.7
2017-Nov-16 18:30N 44°40' E 020°52'3 6.5
2017-Nov-16 18:00N 44°41' E 020°56'3 6.7
2017-Nov-16 17:30N 44°43' E 021°00'3 6.9
2017-Nov-16 17:00N 44°43' E 021°05'3 6.8
2017-Nov-16 16:30N 44°45' E 021°09'3 6.5
2017-Nov-16 16:00N 44°47' E 021°13'7 6.1
2017-Nov-16 14:47N 44°48' E 021°23'2 6.5
2017-Nov-16 14:30N 44°46' E 021°25'4 7.0
2017-Nov-16 13:57N 44°46' E 021°30'1 2.0
2017-Nov-16 13:30N 44°46' E 021°32'0 0.9
2017-Nov-16 13:00N 44°46' E 021°31'0 0.0
2017-Nov-16 12:26N 44°46' E 021°31'0 0.0
2017-Nov-16 08:02N 44°46' E 021°31'0 0.3
2017-Nov-16 08:00N 44°46' E 021°31'0 0.9
2017-Nov-16 07:30N 44°46' E 021°32'3 5.4
2017-Nov-16 06:59N 44°45' E 021°35'189920.0
2017-Nov-16 06:46N 47°17' E 018°55'192728.8
2017-Nov-16 06:30N 44°43' E 021°38'19253145.6
2017-Nov-16 06:30N 47°17' E 018°55'196367.6
2017-Nov-16 05:58N 44°40' E 021°42'13 7.0
2017-Nov-16 04:10N 44°38' E 021°59'2 7.1
2017-Nov-16 03:54N 44°36' E 022°01'3 7.1
2017-Nov-16 03:30N 44°34' E 022°02'4 7.4
2017-Nov-16 03:00N 44°31' E 022°05'213541.3
2017-Nov-16 02:37N 47°17' E 018°55'2162023.7
2017-Nov-16 02:30N 44°28' E 022°09'4 7.0
2017-Nov-16 01:58N 44°31' E 022°12'8 7.2
2017-Nov-16 00:53N 44°38' E 022°18'3 6.9
2017-Nov-16 00:30N 44°40' E 022°20'4 7.5
2017-Nov-16 00:00N 44°42' E 022°25'3 6.4
2017-Nov-15 23:31N 44°42' E 022°29'3 5.6
2017-Nov-15 23:01N 44°40' E 022°31'0 0.2
2017-Nov-15 22:31N 44°40' E 022°32'0 0.2
2017-Nov-15 22:00N 44°40' E 022°32'1 1.4
2017-Nov-15 21:30N 44°40' E 022°32'3 6.6
2017-Nov-15 21:00N 44°37' E 022°36'3 6.2
2017-Nov-15 20:30N 44°37' E 022°40'3 6.7
2017-Nov-15 20:00N 44°35' E 022°44'3 6.0
2017-Nov-15 19:30N 44°32' E 022°45'3 6.2
2017-Nov-15 19:00N 44°31' E 022°41'4 7.1
2017-Nov-15 18:30N 44°33' E 022°37'3 6.1
2017-Nov-15 18:00N 44°31' E 022°34'3 6.5
2017-Nov-15 17:30N 44°28' E 022°31'3 5.2
2017-Nov-15 17:00N 44°28' E 022°28'4 7.2
2017-Nov-15 16:30N 44°25' E 022°30'4 7.3
2017-Nov-15 16:00N 44°21' E 022°31'3 6.9
2017-Nov-15 15:30N 44°18' E 022°34'0 0.2
2017-Nov-15 15:00N 44°18' E 022°34'3 5.7
2017-Nov-15 14:30N 44°17' E 022°38'3 5.4
2017-Nov-15 14:00N 44°16' E 022°41'3 5.9
2017-Nov-15 13:30N 44°13' E 022°41'243912.2
2017-Nov-15 13:14N 47°17' E 018°55'0 0.0
2017-Nov-15 13:01N 47°17' E 018°55'245125926.8
2017-Nov-15 13:00N 44°12' E 022°44'3 5.6
2017-Nov-15 12:30N 44°10' E 022°47'24812734.1
2017-Nov-15 12:29N 47°17' E 018°55'251518.2
2017-Nov-15 12:00N 44°09' E 022°51'3 6.1
2017-Nov-15 11:30N 44°07' E 022°54'3 5.6
2017-Nov-15 11:00N 44°06' E 022°58'3 6.2
2017-Nov-15 10:30N 44°05' E 023°02'2591324.1
2017-Nov-15 10:19N 47°17' E 018°55'261855.1
2017-Nov-15 10:00N 44°02' E 023°02'3 5.4
2017-Nov-15 09:30N 44°00' E 022°59'261687.3
2017-Nov-15 09:08N 47°17' E 018°55'2592149.7
2017-Nov-15 09:00N 43°60' E 022°55'2592028.2
2017-Nov-15 08:53N 47°17' E 018°55'260692.8
2017-Nov-15 08:30N 43°58' E 022°52'3 6.4
2017-Nov-15 08:00N 43°55' E 022°51'2621480.7
2017-Nov-15 07:50N 47°17' E 018°55'264816.0
2017-Nov-15 07:30N 43°52' E 022°51'2631251.1
2017-Nov-15 07:18N 47°17' E 018°55'266920.4
2017-Nov-15 07:00N 43°50' E 022°54'3 6.3
2017-Nov-15 06:30N 43°49' E 022°58'4 6.1
2017-Nov-15 05:53N 43°48' E 023°03'2 5.9
2017-Nov-15 05:29N 43°48' E 023°07'3 5.7
2017-Nov-15 05:00N 43°49' E 023°10'3 6.3
2017-Nov-15 04:30N 43°50' E 023°14'3 6.1
2017-Nov-15 03:59N 43°51' E 023°19'3 6.5
2017-Nov-15 03:29N 43°51' E 023°23'208 4.2
2017-Nov-13 02:01N 45°29' E 019°05'0 0.0
2017-Nov-13 01:31N 45°29' E 019°05'0 0.0
2017-Nov-13 01:00N 45°29' E 019°05'0 0.0
2017-Nov-13 00:31N 45°29' E 019°05'0 0.0
2017-Nov-13 00:01N 45°29' E 019°05'0 0.0
2017-Nov-12 23:31N 45°29' E 019°05'0 0.0
2017-Nov-12 23:01N 45°29' E 019°05'0 0.0
2017-Nov-12 22:31N 45°29' E 019°05'0 1.0
2017-Nov-12 22:01N 45°29' E 019°04'2 4.8
2017-Nov-12 21:30N 45°30' E 019°01'2 4.2
2017-Nov-12 21:01N 45°28' E 018°59'2 4.0
2017-Nov-12 20:30N 45°26' E 019°00'2 3.9
2017-Nov-12 20:01N 45°24' E 019°01'2 4.7
2017-Nov-12 19:30N 45°23' E 018°58'2 4.5
2017-Nov-12 19:00N 45°22' E 018°60'2 4.7
2017-Nov-12 18:30N 45°21' E 019°03'2 4.6
2017-Nov-12 18:01N 45°20' E 019°06'3 4.4
2017-Nov-12 17:27N 45°17' E 019°07'2 5.0
2017-Nov-12 17:00N 45°16' E 019°10'6 4.7
2017-Nov-12 15:44N 45°14' E 019°18'2 5.0
2017-Nov-12 15:22N 45°14' E 019°21'2 4.9
2017-Nov-12 15:01N 45°14' E 019°23'2 4.6
2017-Nov-12 14:30N 45°14' E 019°27'2 4.8
2017-Nov-12 13:59N 45°15' E 019°30'2 4.3
2017-Nov-12 13:28N 45°15' E 019°33'3 4.6
2017-Nov-12 12:55N 45°13' E 019°35'3 5.6
2017-Nov-12 12:19N 45°13' E 019°40'1 2.6
2017-Nov-12 12:00N 45°14' E 019°41'2 4.6
2017-Nov-12 11:30N 45°14' E 019°44'2 4.4
2017-Nov-12 11:00N 45°13' E 019°47'3 4.3
2017-Nov-12 10:25N 45°14' E 019°51'2 4.3
2017-Nov-12 09:59N 45°16' E 019°51'1 2.4
2017-Nov-12 09:26N 45°16' E 019°53'1 2.2
2017-Nov-12 08:59N 45°15' E 019°54'2 5.1
2017-Nov-12 08:30N 45°13' E 019°56'2 4.9
2017-Nov-12 08:01N 45°11' E 019°58'0 0.4
2017-Nov-12 07:31N 45°11' E 019°59'0 0.2
2017-Nov-12 06:55N 45°11' E 019°59'0 0.0
2017-Nov-12 06:31N 45°11' E 019°59'0 0.0
2017-Nov-12 05:59N 45°11' E 019°59'0 0.0
2017-Nov-12 05:14N 45°11' E 019°59'0 0.0
2017-Nov-12 05:00N 45°11' E 019°59'0 0.0
2017-Nov-12 04:30N 45°11' E 019°59'0 0.0
2017-Nov-12 03:59N 45°11' E 019°59'0 0.0
2017-Nov-12 03:31N 45°11' E 019°59'0 0.0
2017-Nov-12 02:56N 45°11' E 019°59'0 0.0
2017-Nov-12 02:08N 45°11' E 019°59'0 0.0
2017-Nov-12 02:00N 45°11' E 019°59'0 0.0
2017-Nov-12 01:27N 45°11' E 019°59'0 0.0
2017-Nov-12 00:55N 45°11' E 019°59'0 0.0
2017-Nov-12 00:30N 45°11' E 019°59'0 0.0
2017-Nov-11 23:57N 45°11' E 019°59'0 0.0
2017-Nov-11 23:30N 45°11' E 019°59'0 0.0
2017-Nov-11 22:49N 45°11' E 019°59'0 0.0
2017-Nov-11 22:24N 45°11' E 019°59'0 0.0
2017-Nov-11 21:55N 45°11' E 019°59'0 0.0
2017-Nov-11 21:28N 45°11' E 019°59'0 0.0
2017-Nov-11 21:00N 45°11' E 019°59'0 0.0
2017-Nov-11 20:14N 45°11' E 019°59'0 0.0
2017-Nov-11 20:01N 45°11' E 019°59'0 0.0
2017-Nov-11 19:26N 45°11' E 019°59'0 0.0
2017-Nov-11 18:43N 45°11' E 019°59'0 0.0
2017-Nov-11 18:30N 45°11' E 019°59'0 0.0
2017-Nov-11 17:55N 45°11' E 019°59'0 0.0
2017-Nov-11 17:13N 45°11' E 019°59'0 0.0
2017-Nov-11 17:01N 45°11' E 019°59'0 0.0
2017-Nov-11 16:30N 45°11' E 019°59'0 0.0
2017-Nov-11 15:56N 45°11' E 019°59'0 0.0
2017-Nov-11 15:07N 45°11' E 019°59'0 0.0
2017-Nov-11 15:00N 45°11' E 019°59'0 0.0
2017-Nov-11 14:21N 45°11' E 019°59'0 0.2
2017-Nov-11 13:58N 45°11' E 019°59'0 0.0
2017-Nov-11 13:27N 45°11' E 019°59'0 0.0
2017-Nov-11 12:45N 45°11' E 019°59'0 0.0
2017-Nov-11 12:14N 45°11' E 019°59'0 0.0
2017-Nov-11 11:35N 45°11' E 019°59'0 0.0
2017-Nov-11 11:29N 45°11' E 019°59'0 0.0
2017-Nov-11 10:42N 45°11' E 019°59'0 0.0
2017-Nov-11 10:30N 45°11' E 019°59'0 0.0
2017-Nov-11 10:00N 45°11' E 019°59'0 0.0
2017-Nov-11 09:30N 45°11' E 019°59'0 0.0
2017-Nov-11 08:58N 45°11' E 019°59'0 0.0
2017-Nov-11 08:20N 45°11' E 019°59'0 0.0
2017-Nov-11 08:00N 45°11' E 019°59'0 0.0
2017-Nov-11 07:30N 45°11' E 019°59'0 0.0
2017-Nov-11 07:00N 45°11' E 019°59'0 0.0
2017-Nov-11 06:30N 45°11' E 019°59'0 0.0
2017-Nov-11 05:53N 45°11' E 019°59'0 0.0
2017-Nov-11 05:24N 45°11' E 019°59'0 0.0
2017-Nov-11 05:01N 45°11' E 019°59'0 0.0
2017-Nov-11 04:14N 45°11' E 019°59'0 0.0
2017-Nov-11 04:00N 45°11' E 019°59'0 0.0
2017-Nov-11 03:26N 45°11' E 019°59'0 0.0
2017-Nov-11 02:32N 45°11' E 019°59'0 0.0
2017-Nov-11 02:29N 45°11' E 019°59'0 0.0
2017-Nov-11 02:00N 45°11' E 019°59'0 0.0
2017-Nov-11 01:09N 45°11' E 019°59'0 0.0
2017-Nov-11 00:55N 45°11' E 019°59'0 0.0
2017-Nov-11 00:30N 45°11' E 019°59'0 0.0
2017-Nov-10 23:59N 45°11' E 019°59'0 0.0
2017-Nov-10 23:07N 45°11' E 019°59'0 0.0
2017-Nov-10 22:59N 45°11' E 019°59'0 0.0
2017-Nov-10 22:25N 45°11' E 019°59'0 0.0
2017-Nov-10 21:51N 45°11' E 019°59'0 0.0
2017-Nov-10 21:18N 45°11' E 019°59'0 0.0
2017-Nov-10 20:45N 45°11' E 019°59'0 0.0
2017-Nov-10 20:30N 45°11' E 019°59'0 0.0
2017-Nov-10 19:58N 45°11' E 019°59'0 0.0
2017-Nov-10 19:17N 45°11' E 019°59'0 0.0
2017-Nov-10 19:01N 45°11' E 019°59'0 0.0
2017-Nov-10 18:29N 45°11' E 019°59'0 0.0
2017-Nov-10 18:00N 45°11' E 019°59'0 0.0
2017-Nov-10 17:30N 45°11' E 019°59'2 3.3
2017-Nov-10 16:51N 45°12' E 019°57'3 9.0
2017-Nov-10 16:30N 45°15' E 019°54'2 3.2
2017-Nov-10 15:46N 45°16' E 019°51'0 0.0
2017-Nov-10 15:01N 45°16' E 019°51'0 0.0
2017-Nov-10 14:59N 45°16' E 019°51'0 0.0
2017-Nov-10 14:28N 45°16' E 019°51'0 0.2
2017-Nov-10 13:59N 45°16' E 019°52'1 2.4
2017-Nov-10 13:30N 45°16' E 019°53'1 1.4
2017-Nov-10 13:01N 45°15' E 019°54'0 0.0
2017-Nov-10 12:30N 45°15' E 019°54'0 0.0
2017-Nov-10 12:00N 45°15' E 019°54'0 0.0
2017-Nov-10 11:31N 45°15' E 019°54'0 0.0
2017-Nov-10 11:00N 45°15' E 019°54'0 0.0
2017-Nov-10 10:30N 45°15' E 019°54'0 0.0
2017-Nov-10 09:45N 45°15' E 019°54'0 0.0
2017-Nov-10 09:29N 45°15' E 019°54'0 0.0
2017-Nov-10 09:00N 45°15' E 019°54'0 0.0
2017-Nov-10 08:29N 45°15' E 019°54'0 0.0
2017-Nov-10 08:00N 45°15' E 019°54'0 0.0
2017-Nov-10 07:20N 45°15' E 019°54'0 0.0
2017-Nov-10 06:48N 45°15' E 019°54'0 0.0
2017-Nov-10 06:27N 45°15' E 019°54'0 0.0
2017-Nov-10 05:51N 45°15' E 019°54'0 0.0
2017-Nov-10 05:29N 45°15' E 019°54'0 0.0
2017-Nov-10 04:49N 45°15' E 019°54'0 0.0
2017-Nov-10 04:29N 45°15' E 019°54'0 0.0
2017-Nov-10 03:39N 45°15' E 019°54'0 0.0
2017-Nov-10 03:29N 45°15' E 019°54'0 0.0
2017-Nov-10 03:01N 45°15' E 019°54'0 0.0
2017-Nov-10 02:31N 45°15' E 019°54'0 0.0
2017-Nov-10 02:00N 45°15' E 019°54'0 0.0
2017-Nov-10 01:16N 45°15' E 019°54'0 0.0
2017-Nov-10 01:00N 45°15' E 019°54'  
Track history (hours):
 
Tides and Currents Weather Stations Pressure Air Temp Water Temp Dewpoint Dewpoint Depression Visibility Wind Speed Wind Dir Waves Ship Positions

Rubikon9

Last reported at 2017-Nov-20 00:30 UTC. Time now 2017-Nov-20 05:55 UTC.
Position N 44°51' E 020°38'.

Length 109 m; draft 0.2 m.

Type: Tanker. MMSI: 267210081.

Date/timePositionNaut miles runAvg speedWind from/ knotsBaromVisibWave heightAir tempDewpointWater temp
2017-Nov-20 00:30N 44°51' E 020°38'17785.1
2017-Nov-20 00:29N 44°41' E 020°57'0 0.0
2017-Nov-20 00:01N 44°41' E 020°57'1730226.6
2017-Nov-20 00:00N 44°51' E 020°38'1733.6
2017-Nov-19 23:31N 44°41' E 020°57'1720151.1
2017-Nov-19 23:30N 44°51' E 020°38'1733.6
2017-Nov-19 23:01N 44°41' E 020°57'172747.9
2017-Nov-19 23:00N 44°51' E 020°38'0 0.0
2017-Nov-19 22:30N 44°51' E 020°38'17294.9
2017-Nov-19 22:27N 44°41' E 020°57'1737.9
2017-Nov-19 22:00N 44°51' E 020°38'1770.3
2017-Nov-19 21:46N 44°41' E 020°57'1761.7
2017-Nov-19 21:30N 44°51' E 020°38'17137.4
2017-Nov-19 21:22N 44°41' E 020°57'1744.1
2017-Nov-19 21:00N 44°51' E 020°38'17251.9
2017-Nov-19 20:56N 44°41' E 020°57'1740.0
2017-Nov-19 20:30N 44°51' E 020°38'171511.0
2017-Nov-19 20:30N 44°41' E 020°57'1734.2
2017-Nov-19 20:00N 44°51' E 020°38'0 0.0
2017-Nov-19 19:30N 44°51' E 020°38'0 0.0
2017-Nov-19 19:00N 44°51' E 020°38'16176.9
2017-Nov-19 18:55N 44°40' E 020°53'1638.2
2017-Nov-19 18:30N 44°51' E 020°38'0 0.0
2017-Nov-19 18:00N 44°51' E 020°38'1043.4
2017-Nov-19 17:47N 44°42' E 020°43'1037.9
2017-Nov-19 17:30N 44°51' E 020°38'859.8
2017-Nov-19 17:23N 44°44' E 020°41'820.1
2017-Nov-19 17:00N 44°51' E 020°38'5213.2
2017-Nov-19 16:59N 44°46' E 020°38'3 6.6
2017-Nov-19 16:31N 44°49' E 020°38'2637.2
2017-Nov-19 16:30N 44°51' E 020°38'1 1.6
2017-Nov-19 16:01N 44°51' E 020°37'11446.7
2017-Nov-19 16:00N 44°51' E 020°38'4 7.9
2017-Nov-19 15:31N 44°50' E 020°32'43553.8
2017-Nov-19 15:30N 44°51' E 020°38'714.4
2017-Nov-19 15:01N 44°50' E 020°28'76463.7
2017-Nov-19 15:00N 44°51' E 020°38'1020.0
2017-Nov-19 14:31N 44°52' E 020°24'101493.2
2017-Nov-19 14:30N 44°51' E 020°38'1225.2
2017-Nov-19 14:01N 44°54' E 020°21'1214912.3
2017-Nov-19 14:00N 44°51' E 020°38'1530.8
2017-Nov-19 13:31N 44°57' E 020°18'1527669.6
2017-Nov-19 13:30N 44°51' E 020°38'1631.6
2017-Nov-19 13:01N 44°60' E 020°19'162466.3
2017-Nov-19 13:00N 44°51' E 020°38'1632.4
2017-Nov-19 12:31N 45°02' E 020°22'1657659.9
2017-Nov-19 12:30N 44°51' E 020°38'0 0.0
2017-Nov-19 12:00N 44°51' E 020°38'20465.4
2017-Nov-19 11:58N 45°06' E 020°18'2043.0
2017-Nov-19 11:30N 44°51' E 020°38'231035.8
2017-Nov-19 11:29N 45°09' E 020°16'3 7.2
2017-Nov-19 11:00N 45°11' E 020°12'2795922.0
2017-Nov-19 11:00N 44°51' E 020°38'0 0.0
2017-Nov-19 10:30N 44°51' E 020°38'291703.6
2017-Nov-19 10:29N 45°10' E 020°07'2959.5
2017-Nov-19 10:00N 44°51' E 020°38'32544.3
2017-Nov-19 09:57N 45°10' E 020°02'3272.6
2017-Nov-19 09:30N 44°51' E 020°38'361138.4
2017-Nov-19 09:29N 45°12' E 019°57'3676.3
2017-Nov-19 09:00N 44°51' E 020°38'39174.9
2017-Nov-19 08:47N 45°15' E 019°54'39142.5
2017-Nov-19 08:30N 44°51' E 020°38'4149050.6
2017-Nov-19 08:30N 45°16' E 019°52'4181.9
2017-Nov-19 08:00N 44°51' E 020°38'414923.8
2017-Nov-19 08:00N 45°13' E 019°49'4183.4
2017-Nov-19 07:30N 44°51' E 020°38'449941.8
2017-Nov-19 07:30N 45°14' E 019°44'4489.2
2017-Nov-19 07:00N 44°51' E 020°38'475829.4
2017-Nov-19 07:00N 45°13' E 019°39'4795.5
2017-Nov-19 06:30N 44°51' E 020°38'501322.1
2017-Nov-19 06:28N 45°13' E 019°34'50108.0
2017-Nov-19 06:00N 44°51' E 020°38'53340.4
2017-Nov-19 05:51N 45°15' E 019°31'2 6.8
2017-Nov-19 05:30N 45°14' E 019°27'55197511.1
2017-Nov-19 05:30N 44°51' E 020°38'56113.0
2017-Nov-19 05:01N 45°14' E 019°25'5667634.2
2017-Nov-19 05:00N 44°51' E 020°38'56113.0
2017-Nov-19 04:31N 45°14' E 019°25'5614493.4
2017-Nov-19 04:30N 44°51' E 020°38'56113.5
2017-Nov-19 04:01N 45°14' E 019°25'56101453.9
2017-Nov-19 04:00N 44°51' E 020°38'56112.8
2017-Nov-19 03:30N 45°14' E 019°25'56101453.9
2017-Nov-19 03:30N 44°51' E 020°38'56112.9
2017-Nov-19 03:01N 45°14' E 019°25'5616909.0
2017-Nov-19 03:00N 44°51' E 020°38'56113.5
2017-Nov-19 02:31N 45°14' E 019°25'5667635.9
2017-Nov-19 02:30N 44°51' E 020°38'0 0.0
2017-Nov-19 02:00N 44°51' E 020°38'56112.8
2017-Nov-19 01:30N 45°14' E 019°25'56202907.8
2017-Nov-19 01:30N 44°51' E 020°38'56112.9
2017-Nov-19 01:01N 45°14' E 019°25'5650727.0
2017-Nov-19 01:00N 44°51' E 020°38'56112.9
2017-Nov-19 00:31N 45°14' E 019°25'56101460.9
2017-Nov-19 00:30N 44°51' E 020°38'56112.9
2017-Nov-19 00:01N 45°14' E 019°25'56101460.9
2017-Nov-19 00:00N 44°51' E 020°38'56112.9
2017-Nov-18 23:31N 45°14' E 019°25'5615609.4
2017-Nov-18 23:30N 44°51' E 020°38'56113.3
2017-Nov-18 23:00N 45°14' E 019°25'56202940.9
2017-Nov-18 23:00N 44°51' E 020°38'57113.3
2017-Nov-18 22:31N 45°14' E 019°24'57101818.7
2017-Nov-18 22:30N 44°51' E 020°38'0 0.0
2017-Nov-18 22:00N 44°51' E 020°38'592016.3
2017-Nov-18 21:58N 45°14' E 019°20'59126.2
2017-Nov-18 21:30N 44°51' E 020°38'634534.2
2017-Nov-18 21:29N 45°15' E 019°15'4 7.7
2017-Nov-18 21:01N 45°16' E 019°10'6748003.1
2017-Nov-18 21:00N 44°51' E 020°38'70140.8
2017-Nov-18 20:31N 45°18' E 019°06'7023004.9
2017-Nov-18 20:30N 44°51' E 020°38'73146.9
2017-Nov-18 20:00N 45°21' E 019°03'73131439.0
2017-Nov-18 20:00N 44°51' E 020°38'77153.6
2017-Nov-18 19:31N 45°22' E 018°59'7791980.6
2017-Nov-18 19:30N 44°51' E 020°38'76151.3
2017-Nov-18 19:01N 45°24' E 019°02'7622669.2
2017-Nov-18 19:00N 44°51' E 020°38'78157.5
2017-Nov-18 18:30N 45°27' E 018°59'78281807.8
2017-Nov-18 18:30N 44°51' E 020°38'78156.3
2017-Nov-18 18:01N 45°29' E 019°01'7823412.1
2017-Nov-18 18:00N 44°51' E 020°38'76152.0
2017-Nov-18 17:31N 45°30' E 019°06'7690604.4
2017-Nov-18 17:30N 44°51' E 020°38'79157.6
2017-Nov-18 17:01N 45°32' E 019°02'7956615.5
2017-Nov-18 17:00N 44°51' E 020°38'81161.5
2017-Nov-18 16:30N 45°32' E 018°59'3 6.8
2017-Nov-18 16:01N 45°33' E 018°55'8298903.3
2017-Nov-18 16:00N 44°51' E 020°35'84168.0
2017-Nov-18 15:31N 45°36' E 018°55'8399319.0
2017-Nov-18 15:30N 44°50' E 020°32'83166.4
2017-Nov-18 15:00N 45°39' E 018°57'83299072.1
2017-Nov-18 15:00N 44°50' E 020°32'85170.0
2017-Nov-18 14:30N 45°41' E 018°56'8349949.4
2017-Nov-18 14:30N 44°50' E 020°29'86173.6
2017-Nov-18 14:01N 45°45' E 018°54'8638767.6
2017-Nov-18 14:00N 44°50' E 020°28'89179.4
2017-Nov-18 13:30N 45°48' E 018°51'8953653.7
2017-Nov-18 13:30N 44°50' E 020°28'92183.8
2017-Nov-18 13:01N 45°51' E 018°51'9241187.2
2017-Nov-18 13:00N 44°50' E 020°28'91183.6
2017-Nov-18 12:31N 45°51' E 018°52'9241239.2
2017-Nov-18 12:30N 44°50' E 020°29'0 0.3
2017-Nov-18 12:00N 44°50' E 020°29'9266065.7
2017-Nov-18 12:00N 45°51' E 018°52'0 0.0
2017-Nov-18 11:30N 45°51' E 018°52'93168102.6
2017-Nov-18 11:30N 44°50' E 020°32'94187.5
2017-Nov-18 11:01N 45°51' E 018°51'9442339.2
2017-Nov-18 11:00N 44°51' E 020°34'2 4.5
2017-Nov-18 10:30N 44°51' E 020°37'9814153.0
2017-Nov-18 10:30N 45°54' E 018°50'99200.9
2017-Nov-18 10:00N 44°50' E 020°38'0 0.0
2017-Nov-18 09:30N 44°50' E 020°38'0 0.0
2017-Nov-18 09:00N 44°50' E 020°38'0 0.0
2017-Nov-18 08:30N 44°50' E 020°38'0 0.0
2017-Nov-18 08:00N 44°50' E 020°38'0 0.0
2017-Nov-18 07:31N 44°50' E 020°38'0 0.0
2017-Nov-18 07:00N 44°50' E 020°38'0 0.0
2017-Nov-18 06:30N 44°50' E 020°38'0 0.0
2017-Nov-18 06:00N 44°50' E 020°38'0 0.0
2017-Nov-18 05:30N 44°50' E 020°38'0 0.0
2017-Nov-18 05:00N 44°50' E 020°38'0 0.0
2017-Nov-18 04:30N 44°50' E 020°38'0 0.0
2017-Nov-18 04:00N 44°50' E 020°38'0 0.0
2017-Nov-18 03:24N 44°50' E 020°38'0 0.0
2017-Nov-18 03:00N 44°50' E 020°38'0 0.0
2017-Nov-18 02:30N 44°50' E 020°38'0 0.0
2017-Nov-18 02:01N 44°50' E 020°38'0 0.0
2017-Nov-18 01:30N 44°50' E 020°38'0 0.0
2017-Nov-18 01:00N 44°50' E 020°38'0 0.0
2017-Nov-18 00:30N 44°50' E 020°38'0 0.0
2017-Nov-18 00:00N 44°50' E 020°38'0 0.0
2017-Nov-17 23:31N 44°50' E 020°38'0 0.0
2017-Nov-17 23:00N 44°50' E 020°38'0 0.0
2017-Nov-17 22:30N 44°50' E 020°38'1 1.8
2017-Nov-17 22:01N 44°50' E 020°39'0 0.2
2017-Nov-17 21:30N 44°50' E 020°39'0 0.0
2017-Nov-17 21:00N 44°50' E 020°39'0 0.0
2017-Nov-17 20:30N 44°50' E 020°39'0 0.0
2017-Nov-17 20:00N 44°50' E 020°39'0 0.0
2017-Nov-17 19:30N 44°50' E 020°39'0 0.0
2017-Nov-17 19:00N 44°50' E 020°39'0 0.0
2017-Nov-17 18:30N 44°50' E 020°39'0 0.0
2017-Nov-17 18:00N 44°50' E 020°39'0 0.0
2017-Nov-17 17:30N 44°50' E 020°39'0 0.0
2017-Nov-17 17:00N 44°50' E 020°39'0 0.0
2017-Nov-17 16:30N 44°50' E 020°39'0 0.0
2017-Nov-17 16:00N 44°50' E 020°39'0 0.0
2017-Nov-17 15:30N 44°50' E 020°39'0 0.0
2017-Nov-17 15:00N 44°50' E 020°39'0 0.0
2017-Nov-17 14:30N 44°50' E 020°39'0 0.0
2017-Nov-17 14:00N 44°50' E 020°39'0 0.0
2017-Nov-17 13:30N 44°50' E 020°39'0 0.0
2017-Nov-17 13:00N 44°50' E 020°39'0 0.0
2017-Nov-17 12:30N 44°50' E 020°39'0 0.0
2017-Nov-17 12:00N 44°50' E 020°39'0 0.0
2017-Nov-17 11:30N 44°50' E 020°39'0 0.0
2017-Nov-17 11:00N 44°50' E 020°39'0 0.0
2017-Nov-17 10:31N 44°50' E 020°39'0 0.0
2017-Nov-17 10:01N 44°50' E 020°39'0 0.0
2017-Nov-17 09:31N 44°50' E 020°39'0 0.0
2017-Nov-17 09:00N 44°50' E 020°39'0 0.0
2017-Nov-17 08:30N 44°50' E 020°39'0 0.0
2017-Nov-17 08:00N 44°50' E 020°39'163690.7
2017-Nov-17 07:46N 47°16' E 018°55'163617.2
2017-Nov-17 07:30N 44°50' E 020°39'164944.2
2017-Nov-17 07:20N 47°17' E 018°55'164503.5
2017-Nov-17 07:00N 44°50' E 020°39'0 0.0
2017-Nov-17 06:30N 44°50' E 020°39'1641089.0
2017-Nov-17 06:21N 47°17' E 018°55'164470.4
2017-Nov-17 06:00N 44°50' E 020°39'16429565.6
2017-Nov-17 06:00N 47°17' E 018°55'164332.2
2017-Nov-17 05:30N 44°50' E 020°39'16449275.5
2017-Nov-17 05:30N 47°17' E 018°55'164330.7
2017-Nov-17 05:00N 44°50' E 020°39'16473913.2
2017-Nov-17 05:00N 47°17' E 018°55'164331.8
2017-Nov-17 04:31N 44°50' E 020°39'1649536.9
2017-Nov-17 04:30N 47°17' E 018°55'164338.3
2017-Nov-17 04:00N 44°50' E 020°39'1642570.8
2017-Nov-17 03:57N 47°17' E 018°55'164378.8
2017-Nov-17 03:31N 44°50' E 020°39'1645854.3
2017-Nov-17 03:29N 47°17' E 018°55'164346.0
2017-Nov-17 03:00N 44°50' E 020°39'16412318.5
2017-Nov-17 03:00N 47°17' E 018°55'0 0.0
2017-Nov-17 02:31N 47°17' E 018°55'0 0.0
2017-Nov-17 02:01N 47°17' E 018°55'0 0.0
2017-Nov-17 01:27N 47°17' E 018°55'164949.1
2017-Nov-17 01:17N 44°50' E 020°39'0 0.0
2017-Nov-17 01:01N 44°50' E 020°39'1645053.7
2017-Nov-17 00:59N 47°17' E 018°55'164349.3
2017-Nov-17 00:30N 44°50' E 020°39'16410750.7
2017-Nov-17 00:29N 47°17' E 018°55'164338.9
2017-Nov-17 00:00N 44°50' E 020°39'164197101.8
2017-Nov-17 00:00N 47°17' E 018°55'164329.0
2017-Nov-16 23:30N 44°50' E 020°39'16411593.8
2017-Nov-16 23:30N 47°17' E 018°55'164338.1
2017-Nov-16 23:00N 44°50' E 020°39'16414078.2
2017-Nov-16 23:00N 47°17' E 018°55'164338.1
2017-Nov-16 22:31N 44°50' E 020°39'16412318.5
2017-Nov-16 22:30N 47°17' E 018°55'164335.7
2017-Nov-16 22:00N 44°50' E 020°39'1642954.5
2017-Nov-16 21:57N 47°17' E 018°55'164370.3
2017-Nov-16 21:30N 44°50' E 020°39'1648209.4
2017-Nov-16 21:29N 47°17' E 018°55'166345.6
2017-Nov-16 21:01N 44°48' E 020°38'166925.2
2017-Nov-16 20:50N 47°17' E 018°55'167521.6
2017-Nov-16 20:31N 44°46' E 020°38'1671575.8
2017-Nov-16 20:24N 47°17' E 018°55'170430.8
2017-Nov-16 20:00N 44°44' E 020°40'1707376.1
2017-Nov-16 19:59N 47°17' E 018°55'173363.5
2017-Nov-16 19:30N 44°41' E 020°43'3 6.7
2017-Nov-16 19:00N 44°40' E 020°47'3 6.7
2017-Nov-16 18:30N 44°40' E 020°52'3 6.5
2017-Nov-16 18:00N 44°41' E 020°56'3 6.7
2017-Nov-16 17:30N 44°43' E 021°00'3 6.9
2017-Nov-16 17:00N 44°43' E 021°05'3 6.8
2017-Nov-16 16:30N 44°45' E 021°09'3 6.5
2017-Nov-16 16:00N 44°47' E 021°13'7 6.1
2017-Nov-16 14:47N 44°48' E 021°23'2 6.5
2017-Nov-16 14:30N 44°46' E 021°25'4 7.0
2017-Nov-16 13:57N 44°46' E 021°30'1 2.0
2017-Nov-16 13:30N 44°46' E 021°32'0 0.9
2017-Nov-16 13:00N 44°46' E 021°31'0 0.0
2017-Nov-16 12:26N 44°46' E 021°31'0 0.0
2017-Nov-16 08:02N 44°46' E 021°31'0 0.3
2017-Nov-16 08:00N 44°46' E 021°31'0 0.9
2017-Nov-16 07:30N 44°46' E 021°32'3 5.4
2017-Nov-16 06:59N 44°45' E 021°35'189920.0
2017-Nov-16 06:46N 47°17' E 018°55'192728.8
2017-Nov-16 06:30N 44°43' E 021°38'19253145.6
2017-Nov-16 06:30N 47°17' E 018°55'196367.6
2017-Nov-16 05:58N 44°40' E 021°42'13 7.0
2017-Nov-16 04:10N 44°38' E 021°59'2 7.1
2017-Nov-16 03:54N 44°36' E 022°01'3 7.1
2017-Nov-16 03:30N 44°34' E 022°02'4 7.4
2017-Nov-16 03:00N 44°31' E 022°05'213541.3
2017-Nov-16 02:37N 47°17' E 018°55'2162023.7
2017-Nov-16 02:30N 44°28' E 022°09'4 7.0
2017-Nov-16 01:58N 44°31' E 022°12'8 7.2
2017-Nov-16 00:53N 44°38' E 022°18'3 6.9
2017-Nov-16 00:30N 44°40' E 022°20'4 7.5
2017-Nov-16 00:00N 44°42' E 022°25'3 6.4
2017-Nov-15 23:31N 44°42' E 022°29'3 5.6
2017-Nov-15 23:01N 44°40' E 022°31'0 0.2
2017-Nov-15 22:31N 44°40' E 022°32'0 0.2
2017-Nov-15 22:00N 44°40' E 022°32'1 1.4
2017-Nov-15 21:30N 44°40' E 022°32'3 6.6
2017-Nov-15 21:00N 44°37' E 022°36'3 6.2
2017-Nov-15 20:30N 44°37' E 022°40'3 6.7
2017-Nov-15 20:00N 44°35' E 022°44'3 6.0
2017-Nov-15 19:30N 44°32' E 022°45'3 6.2
2017-Nov-15 19:00N 44°31' E 022°41'4 7.1
2017-Nov-15 18:30N 44°33' E 022°37'3 6.1
2017-Nov-15 18:00N 44°31' E 022°34'3 6.5
2017-Nov-15 17:30N 44°28' E 022°31'3 5.2
2017-Nov-15 17:00N 44°28' E 022°28'4 7.2
2017-Nov-15 16:30N 44°25' E 022°30'4 7.3
2017-Nov-15 16:00N 44°21' E 022°31'3 6.9
2017-Nov-15 15:30N 44°18' E 022°34'0 0.2
2017-Nov-15 15:00N 44°18' E 022°34'3 5.7
2017-Nov-15 14:30N 44°17' E 022°38'3 5.4
2017-Nov-15 14:00N 44°16' E 022°41'3 5.9
2017-Nov-15 13:30N 44°13' E 022°41'243912.2
2017-Nov-15 13:14N 47°17' E 018°55'0 0.0
2017-Nov-15 13:01N 47°17' E 018°55'245125926.8
2017-Nov-15 13:00N 44°12' E 022°44'3 5.6
2017-Nov-15 12:30N 44°10' E 022°47'24812734.1
2017-Nov-15 12:29N 47°17' E 018°55'251518.2
2017-Nov-15 12:00N 44°09' E 022°51'3 6.1
2017-Nov-15 11:30N 44°07' E 022°54'3 5.6
2017-Nov-15 11:00N 44°06' E 022°58'3 6.2
2017-Nov-15 10:30N 44°05' E 023°02'2591324.1
2017-Nov-15 10:19N 47°17' E 018°55'261855.1
2017-Nov-15 10:00N 44°02' E 023°02'3 5.4
2017-Nov-15 09:30N 44°00' E 022°59'261687.3
2017-Nov-15 09:08N 47°17' E 018°55'2592149.7
2017-Nov-15 09:00N 43°60' E 022°55'2592028.2
2017-Nov-15 08:53N 47°17' E 018°55'260692.8
2017-Nov-15 08:30N 43°58' E 022°52'3 6.4
2017-Nov-15 08:00N 43°55' E 022°51'2621480.7
2017-Nov-15 07:50N 47°17' E 018°55'264816.0
2017-Nov-15 07:30N 43°52' E 022°51'2631251.1
2017-Nov-15 07:18N 47°17' E 018°55'266920.4
2017-Nov-15 07:00N 43°50' E 022°54'3 6.3
2017-Nov-15 06:30N 43°49' E 022°58'4 6.1
2017-Nov-15 05:53N 43°48' E 023°03'2 5.9
2017-Nov-15 05:29N 43°48' E 023°07'3 5.7
2017-Nov-15 05:00N 43°49' E 023°10'3 6.3
2017-Nov-15 04:30N 43°50' E 023°14'3 6.1
2017-Nov-15 03:59N 43°51' E 023°19'3 6.5
2017-Nov-15 03:29N 43°51' E 023°23'208 4.2
2017-Nov-13 02:01N 45°29' E 019°05'0 0.0
2017-Nov-13 01:31N 45°29' E 019°05'0 0.0
2017-Nov-13 01:00N 45°29' E 019°05'0 0.0
2017-Nov-13 00:31N 45°29' E 019°05'0 0.0
2017-Nov-13 00:01N 45°29' E 019°05'0 0.0
2017-Nov-12 23:31N 45°29' E 019°05'0 0.0
2017-Nov-12 23:01N 45°29' E 019°05'0 0.0
2017-Nov-12 22:31N 45°29' E 019°05'0 1.0
2017-Nov-12 22:01N 45°29' E 019°04'2 4.8
2017-Nov-12 21:30N 45°30' E 019°01'2 4.2
2017-Nov-12 21:01N 45°28' E 018°59'2 4.0
2017-Nov-12 20:30N 45°26' E 019°00'2 3.9
2017-Nov-12 20:01N 45°24' E 019°01'2 4.7
2017-Nov-12 19:30N 45°23' E 018°58'2 4.5
2017-Nov-12 19:00N 45°22' E 018°60'2 4.7
2017-Nov-12 18:30N 45°21' E 019°03'2 4.6
2017-Nov-12 18:01N 45°20' E 019°06'3 4.4
2017-Nov-12 17:27N 45°17' E 019°07'2 5.0
2017-Nov-12 17:00N 45°16' E 019°10'6 4.7
2017-Nov-12 15:44N 45°14' E 019°18'2 5.0
2017-Nov-12 15:22N 45°14' E 019°21'2 4.9
2017-Nov-12 15:01N 45°14' E 019°23'2 4.6
2017-Nov-12 14:30N 45°14' E 019°27'2 4.8
2017-Nov-12 13:59N 45°15' E 019°30'2 4.3
2017-Nov-12 13:28N 45°15' E 019°33'3 4.6
2017-Nov-12 12:55N 45°13' E 019°35'3 5.6
2017-Nov-12 12:19N 45°13' E 019°40'1 2.6
2017-Nov-12 12:00N 45°14' E 019°41'2 4.6
2017-Nov-12 11:30N 45°14' E 019°44'2 4.4
2017-Nov-12 11:00N 45°13' E 019°47'3 4.3
2017-Nov-12 10:25N 45°14' E 019°51'2 4.3
2017-Nov-12 09:59N 45°16' E 019°51'1 2.4
2017-Nov-12 09:26N 45°16' E 019°53'1 2.2
2017-Nov-12 08:59N 45°15' E 019°54'2 5.1
2017-Nov-12 08:30N 45°13' E 019°56'2 4.9
2017-Nov-12 08:01N 45°11' E 019°58'0 0.4
2017-Nov-12 07:31N 45°11' E 019°59'0 0.2
2017-Nov-12 06:55N 45°11' E 019°59'0 0.0
2017-Nov-12 06:31N 45°11' E 019°59'0 0.0
2017-Nov-12 05:59N 45°11' E 019°59'0 0.0
2017-Nov-12 05:14N 45°11' E 019°59'0 0.0
2017-Nov-12 05:00N 45°11' E 019°59'0 0.0
2017-Nov-12 04:30N 45°11' E 019°59'0 0.0
2017-Nov-12 03:59N 45°11' E 019°59'0 0.0
2017-Nov-12 03:31N 45°11' E 019°59'0 0.0
2017-Nov-12 02:56N 45°11' E 019°59'0 0.0
2017-Nov-12 02:08N 45°11' E 019°59'0 0.0
2017-Nov-12 02:00N 45°11' E 019°59'0 0.0
2017-Nov-12 01:27N 45°11' E 019°59'0 0.0
2017-Nov-12 00:55N 45°11' E 019°59'0 0.0
2017-Nov-12 00:30N 45°11' E 019°59'0 0.0
2017-Nov-11 23:57N 45°11' E 019°59'0 0.0
2017-Nov-11 23:30N 45°11' E 019°59'0 0.0
2017-Nov-11 22:49N 45°11' E 019°59'0 0.0
2017-Nov-11 22:24N 45°11' E 019°59'0 0.0
2017-Nov-11 21:55N 45°11' E 019°59'0 0.0
2017-Nov-11 21:28N 45°11' E 019°59'0 0.0
2017-Nov-11 21:00N 45°11' E 019°59'0 0.0
2017-Nov-11 20:14N 45°11' E 019°59'0 0.0
2017-Nov-11 20:01N 45°11' E 019°59'0 0.0
2017-Nov-11 19:26N 45°11' E 019°59'0 0.0
2017-Nov-11 18:43N 45°11' E 019°59'0 0.0
2017-Nov-11 18:30N 45°11' E 019°59'0 0.0
2017-Nov-11 17:55N 45°11' E 019°59'0 0.0
2017-Nov-11 17:13N 45°11' E 019°59'0 0.0
2017-Nov-11 17:01N 45°11' E 019°59'0 0.0
2017-Nov-11 16:30N 45°11' E 019°59'0 0.0
2017-Nov-11 15:56N 45°11' E 019°59'0 0.0
2017-Nov-11 15:07N 45°11' E 019°59'0 0.0
2017-Nov-11 15:00N 45°11' E 019°59'0 0.0
2017-Nov-11 14:21N 45°11' E 019°59'0 0.2
2017-Nov-11 13:58N 45°11' E 019°59'0 0.0
2017-Nov-11 13:27N 45°11' E 019°59'0 0.0
2017-Nov-11 12:45N 45°11' E 019°59'0 0.0
2017-Nov-11 12:14N 45°11' E 019°59'0 0.0
2017-Nov-11 11:35N 45°11' E 019°59'0 0.0
2017-Nov-11 11:29N 45°11' E 019°59'0 0.0
2017-Nov-11 10:42N 45°11' E 019°59'0 0.0
2017-Nov-11 10:30N 45°11' E 019°59'0 0.0
2017-Nov-11 10:00N 45°11' E 019°59'0 0.0
2017-Nov-11 09:30N 45°11' E 019°59'0 0.0
2017-Nov-11 08:58N 45°11' E 019°59'0 0.0
2017-Nov-11 08:20N 45°11' E 019°59'0 0.0
2017-Nov-11 08:00N 45°11' E 019°59'0 0.0
2017-Nov-11 07:30N 45°11' E 019°59'0 0.0
2017-Nov-11 07:00N 45°11' E 019°59'0 0.0
2017-Nov-11 06:30N 45°11' E 019°59'0 0.0
2017-Nov-11 05:53N 45°11' E 019°59'0 0.0
2017-Nov-11 05:24N 45°11' E 019°59'0 0.0
2017-Nov-11 05:01N 45°11' E 019°59'0 0.0
2017-Nov-11 04:14N 45°11' E 019°59'0 0.0
2017-Nov-11 04:00N 45°11' E 019°59'0 0.0
2017-Nov-11 03:26N 45°11' E 019°59'0 0.0
2017-Nov-11 02:32N 45°11' E 019°59'0 0.0
2017-Nov-11 02:29N 45°11' E 019°59'0 0.0
2017-Nov-11 02:00N 45°11' E 019°59'0 0.0
2017-Nov-11 01:09N 45°11' E 019°59'0 0.0
2017-Nov-11 00:55N 45°11' E 019°59'0 0.0
2017-Nov-11 00:30N 45°11' E 019°59'0 0.0
2017-Nov-10 23:59N 45°11' E 019°59'0 0.0
2017-Nov-10 23:07N 45°11' E 019°59'0 0.0
2017-Nov-10 22:59N 45°11' E 019°59'0 0.0
2017-Nov-10 22:25N 45°11' E 019°59'0 0.0
2017-Nov-10 21:51N 45°11' E 019°59'0 0.0
2017-Nov-10 21:18N 45°11' E 019°59'0 0.0
2017-Nov-10 20:45N 45°11' E 019°59'0 0.0
2017-Nov-10 20:30N 45°11' E 019°59'0 0.0
2017-Nov-10 19:58N 45°11' E 019°59'0 0.0
2017-Nov-10 19:17N 45°11' E 019°59'0 0.0
2017-Nov-10 19:01N 45°11' E 019°59'0 0.0
2017-Nov-10 18:29N 45°11' E 019°59'0 0.0
2017-Nov-10 18:00N 45°11' E 019°59'0 0.0
2017-Nov-10 17:30N 45°11' E 019°59'2 3.3
2017-Nov-10 16:51N 45°12' E 019°57'3 9.0
2017-Nov-10 16:30N 45°15' E 019°54'2 3.2
2017-Nov-10 15:46N 45°16' E 019°51'0 0.0
2017-Nov-10 15:01N 45°16' E 019°51'0 0.0
2017-Nov-10 14:59N 45°16' E 019°51'0 0.0
2017-Nov-10 14:28N 45°16' E 019°51'0 0.2
2017-Nov-10 13:59N 45°16' E 019°52'1 2.4
2017-Nov-10 13:30N 45°16' E 019°53'1 1.4
2017-Nov-10 13:01N 45°15' E 019°54'0 0.0
2017-Nov-10 12:30N 45°15' E 019°54'0 0.0
2017-Nov-10 12:00N 45°15' E 019°54'0 0.0
2017-Nov-10 11:31N 45°15' E 019°54'0 0.0
2017-Nov-10 11:00N 45°15' E 019°54'0 0.0
2017-Nov-10 10:30N 45°15' E 019°54'0 0.0
2017-Nov-10 09:45N 45°15' E 019°54'0 0.0
2017-Nov-10 09:29N 45°15' E 019°54'0 0.0
2017-Nov-10 09:00N 45°15' E 019°54'0 0.0
2017-Nov-10 08:29N 45°15' E 019°54'0 0.0
2017-Nov-10 08:00N 45°15' E 019°54'0 0.0
2017-Nov-10 07:20N 45°15' E 019°54'0 0.0
2017-Nov-10 06:48N 45°15' E 019°54'0 0.0
2017-Nov-10 06:27N 45°15' E 019°54'0 0.0
2017-Nov-10 05:51N 45°15' E 019°54'0 0.0
2017-Nov-10 05:29N 45°15' E 019°54'0 0.0
2017-Nov-10 04:49N 45°15' E 019°54'0 0.0
2017-Nov-10 04:29N 45°15' E 019°54'0 0.0
2017-Nov-10 03:39N 45°15' E 019°54'0 0.0
2017-Nov-10 03:29N 45°15' E 019°54'0 0.0
2017-Nov-10 03:01N 45°15' E 019°54'0 0.0
2017-Nov-10 02:31N 45°15' E 019°54'0 0.0
2017-Nov-10 02:00N 45°15' E 019°54'0 0.0
2017-Nov-10 01:16N 45°15' E 019°54'0 0.0
2017-Nov-10 01:00N 45°15' E 019°54'  

Dump ship's entire track history